createdAt,value
2022-12-03T00:02:23.881Z,102121.28
2022-12-03T00:07:25.153Z,102137.88
2022-12-03T00:12:24.443Z,102139.56
2022-12-03T00:17:23.750Z,102128.28
2022-12-03T00:22:27.800Z,102139.59
2022-12-03T00:27:28.183Z,102133.50
2022-12-03T00:32:33.707Z,102135.25
2022-12-03T00:37:35.369Z,102134.25
2022-12-03T00:42:36.010Z,102143.84
2022-12-03T00:47:35.801Z,102140.38
2022-12-03T00:52:36.596Z,102147.31
2022-12-03T00:57:35.739Z,102150.75
2022-12-03T01:02:42.270Z,102146.34
2022-12-03T01:07:42.648Z,102149.84
2022-12-03T01:12:42.323Z,102150.72
2022-12-03T01:17:41.960Z,102156.75
2022-12-03T01:22:44.152Z,102153.34
2022-12-03T01:27:45.905Z,102159.41
2022-12-03T01:32:45.197Z,102162.78
2022-12-03T01:37:45.582Z,102168.88
2022-12-03T01:42:46.512Z,102171.47
2022-12-03T01:48:11.829Z,102182.81
2022-12-03T01:53:16.917Z,102170.63
2022-12-03T01:58:19.910Z,102173.22
2022-12-03T02:03:25.630Z,102172.38
2022-12-03T02:08:35.394Z,102163.72
2022-12-03T02:13:35.015Z,102168.22
2022-12-03T02:18:34.451Z,102178.59
2022-12-03T02:23:43.447Z,102167.22
2022-12-03T02:28:43.975Z,102180.22
2022-12-03T02:33:43.249Z,102181.94
2022-12-03T02:38:44.689Z,102182.78
2022-12-03T02:43:45.415Z,102188.81
2022-12-03T02:48:46.011Z,102189.78
2022-12-03T02:53:55.370Z,102185.41
2022-12-03T02:59:00.904Z,102182.75
2022-12-03T03:04:00.875Z,102171.41
2022-12-03T03:09:00.691Z,102175.69
2022-12-03T03:14:02.683Z,102181.78
2022-12-03T03:19:02.272Z,102184.34
2022-12-03T03:24:01.167Z,102186.97
2022-12-03T03:29:03.292Z,102185.25
2022-12-03T03:34:02.769Z,102193.91
2022-12-03T03:39:02.937Z,102193.03
2022-12-03T03:44:05.302Z,102191.38
2022-12-03T03:49:05.838Z,102198.44
2022-12-03T03:54:06.627Z,102194.97
2022-12-03T03:59:07.119Z,102192.38
2022-12-03T04:04:08.792Z,102201.09
2022-12-03T04:09:08.021Z,102197.56
2022-12-03T04:14:10.097Z,102206.22
2022-12-03T04:19:09.238Z,102200.16
2022-12-03T04:24:10.303Z,102201.94
2022-12-03T04:29:10.758Z,102204.56
2022-12-03T04:34:28.984Z,102215.03
2022-12-03T04:39:31.109Z,102215.00
2022-12-03T04:44:37.648Z,102212.41
2022-12-03T04:49:42.866Z,102217.56
2022-12-03T04:54:42.172Z,102223.66
2022-12-03T04:59:42.675Z,102230.69
2022-12-03T05:04:49.863Z,102229.75
2022-12-03T05:09:48.781Z,102228.88
2022-12-03T05:14:49.211Z,102235.81
2022-12-03T05:20:08.713Z,102234.97
2022-12-03T05:25:08.748Z,102232.34
2022-12-03T05:30:11.368Z,102236.69
2022-12-03T05:35:11.695Z,102243.63
2022-12-03T05:40:14.583Z,102247.06
2022-12-03T05:45:15.046Z,102259.25
2022-12-03T05:50:38.464Z,102246.16
2022-12-03T05:55:53.649Z,102255.72
2022-12-03T06:00:57.453Z,102255.69
2022-12-03T06:05:56.380Z,102269.69
2022-12-03T06:10:55.421Z,102281.84
2022-12-03T06:15:54.622Z,102278.34
2022-12-03T06:20:55.047Z,102283.53
2022-12-03T06:26:21.017Z,102285.25
2022-12-03T06:31:32.372Z,102289.59
2022-12-03T06:36:57.092Z,102288.78
2022-12-03T06:42:15.105Z,102288.78
2022-12-03T06:47:16.847Z,102291.38
2022-12-03T06:52:25.069Z,102298.34
2022-12-03T06:57:33.351Z,102292.28
2022-12-03T07:09:21.670Z,102300.00
2022-12-03T07:58:39.818Z,102297.53
2022-12-03T08:03:47.142Z,102309.66
2022-12-03T08:08:52.652Z,102315.72
2022-12-03T08:14:06.186Z,102320.03
2022-12-03T08:19:22.334Z,102334.81
2022-12-03T08:24:49.014Z,102333.09
2022-12-03T08:30:07.042Z,102331.38
2022-12-03T08:35:15.786Z,102320.25
2022-12-03T08:40:25.054Z,102316.69
2022-12-03T08:45:41.132Z,102316.53
2022-12-03T08:50:43.965Z,102314.78
2022-12-03T08:55:48.168Z,102317.47
2022-12-03T09:00:48.651Z,102311.38
2022-12-03T09:05:47.716Z,102310.38
2022-12-03T09:10:47.046Z,102288.47
2022-12-03T09:15:46.264Z,102290.22
2022-12-03T09:20:46.701Z,102285.75
2022-12-03T09:25:45.974Z,102293.69
2022-12-03T09:30:45.156Z,102294.47
2022-12-03T09:35:51.151Z,102295.59
2022-12-03T09:40:52.699Z,102290.97
2022-12-03T09:45:51.839Z,102295.19
2022-12-03T09:50:53.243Z,102284.91
2022-12-03T09:55:53.101Z,102284.75
2022-12-03T10:00:53.592Z,102275.97
2022-12-03T10:05:56.245Z,102276.16
2022-12-03T10:10:57.779Z,102273.44
2022-12-03T10:15:59.867Z,102271.75
2022-12-03T10:21:00.544Z,102270.94
2022-12-03T10:26:03.142Z,102268.25
2022-12-03T10:31:03.636Z,102276.84
2022-12-03T10:36:24.810Z,102272.75
2022-12-03T10:41:26.172Z,102270.13
2022-12-03T10:46:25.354Z,102272.69
2022-12-03T10:51:26.132Z,102264.91
2022-12-03T10:56:28.431Z,102260.66
2022-12-03T11:01:28.060Z,102254.44
2022-12-03T11:06:41.522Z,102251.69
2022-12-03T11:11:40.429Z,102251.72
2022-12-03T11:17:10.234Z,102258.59
2022-12-03T11:22:41.640Z,102259.50
2022-12-03T11:27:45.031Z,102263.16
2022-12-03T11:33:01.038Z,102262.09
2022-12-03T11:38:47.401Z,102255.06
2022-12-03T11:44:34.092Z,102245.63
2022-12-03T11:49:47.419Z,102250.97
2022-12-03T11:54:51.512Z,102244.03
2022-12-03T12:00:17.668Z,102249.38
2022-12-03T12:05:23.656Z,102248.47
2022-12-03T12:10:45.918Z,102258.81
2022-12-03T12:15:46.795Z,102242.22
2022-12-03T12:20:45.801Z,102243.06
2022-12-03T12:25:48.244Z,102242.97
2022-12-03T12:30:51.331Z,102239.56
2022-12-03T12:35:53.267Z,102247.75
2022-12-03T12:41:00.279Z,102246.16
2022-12-03T12:46:38.701Z,102244.34
2022-12-03T12:51:26.712Z,102259.75
2022-12-03T12:56:27.609Z,102255.38
2022-12-03T13:01:30.505Z,102257.06
2022-12-03T13:06:33.173Z,102263.09
2022-12-03T13:11:46.929Z,102267.47
2022-12-03T13:16:48.396Z,102269.34
2022-12-03T13:21:47.398Z,102272.72
2022-12-03T13:26:46.323Z,102271.78
2022-12-03T13:31:54.361Z,102277.94
2022-12-03T13:36:58.443Z,102277.13
2022-12-03T13:42:15.397Z,102278.84
2022-12-03T13:47:19.788Z,102285.91
2022-12-03T13:52:21.900Z,102283.38
2022-12-03T13:57:20.826Z,102286.00
2022-12-03T14:02:21.592Z,102295.56
2022-12-03T14:07:20.485Z,102289.53
2022-12-03T14:12:30.842Z,102288.66
2022-12-03T14:17:33.604Z,102288.66
2022-12-03T14:22:32.643Z,102286.88
2022-12-03T14:27:31.654Z,102286.91
2022-12-03T14:32:32.109Z,102281.69
2022-12-03T14:37:31.237Z,102296.59
2022-12-03T14:42:30.112Z,102294.91
2022-12-03T14:47:29.050Z,102303.56
2022-12-03T14:52:29.381Z,102299.22
2022-12-03T14:57:28.373Z,102304.47
2022-12-03T15:02:27.498Z,102305.41
2022-12-03T15:07:26.427Z,102315.03
2022-12-03T15:12:26.751Z,102326.28
2022-12-03T15:17:31.347Z,102322.72
2022-12-03T15:22:30.858Z,102322.72
2022-12-03T15:27:31.055Z,102315.00
2022-12-03T15:32:30.041Z,102321.19
2022-12-03T15:37:28.875Z,102324.69
2022-12-03T15:42:28.235Z,102324.66
2022-12-03T15:47:30.711Z,102329.91
2022-12-03T15:52:29.647Z,102336.03
2022-12-03T15:57:29.904Z,102339.53
2022-12-03T16:02:34.019Z,102343.88
2022-12-03T16:07:33.105Z,102336.09
2022-12-03T16:12:32.202Z,102340.41
2022-12-03T16:17:32.450Z,102348.28
2022-12-03T16:22:31.303Z,102343.97
2022-12-03T16:27:30.904Z,102350.91
2022-12-03T16:32:29.849Z,102343.13
2022-12-03T16:37:30.192Z,102350.09
2022-12-03T16:42:29.023Z,102350.97
2022-12-03T16:47:33.635Z,102356.16
2022-12-03T16:52:34.770Z,102360.50
2022-12-03T16:57:34.130Z,102370.91
2022-12-03T17:02:33.033Z,102377.03
2022-12-03T17:07:32.051Z,102372.69
2022-12-03T17:12:54.156Z,102372.69
2022-12-03T17:17:51.353Z,102384.00
2022-12-03T17:22:51.187Z,102384.88
2022-12-03T17:27:52.489Z,102395.31
2022-12-03T17:32:51.611Z,102396.16
2022-12-03T17:37:50.506Z,102409.19
2022-12-03T17:42:49.457Z,102411.81
2022-12-03T17:47:49.764Z,102414.41
2022-12-03T17:52:48.601Z,102411.81
2022-12-03T17:57:47.470Z,102422.25
2022-12-03T18:02:46.325Z,102414.41
2022-12-03T18:07:46.655Z,102421.34
2022-12-03T18:12:45.464Z,102428.28
2022-12-03T18:17:44.329Z,102434.38
2022-12-03T18:22:43.231Z,102430.03
2022-12-03T18:27:43.522Z,102429.13
2022-12-03T18:32:42.456Z,102434.31
2022-12-03T18:37:41.396Z,102428.22
2022-12-03T18:42:40.245Z,102435.13
2022-12-03T18:47:40.624Z,102434.28
2022-12-03T18:52:40.070Z,102433.38
2022-12-03T18:57:38.818Z,102429.88
2022-12-03T19:03:01.775Z,102428.06
2022-12-03T19:07:58.088Z,102435.06
2022-12-03T19:12:57.098Z,102432.41
2022-12-03T19:17:55.962Z,102440.13
2022-12-03T19:22:54.919Z,102446.34
2022-12-03T19:27:57.207Z,102443.75
2022-12-03T19:32:56.063Z,102448.94
2022-12-03T19:37:55.788Z,102450.63
2022-12-03T19:42:56.179Z,102457.44
2022-12-03T19:47:55.018Z,102459.19
2022-12-03T19:52:53.908Z,102456.44
2022-12-03T19:57:52.827Z,102456.44
2022-12-03T20:02:53.099Z,102460.78
2022-12-03T20:07:52.046Z,102468.44
2022-12-03T20:12:51.045Z,102471.13
2022-12-03T20:17:49.908Z,102460.78
2022-12-03T20:22:50.220Z,102472.81
2022-12-03T20:27:49.103Z,102464.94
2022-12-03T20:32:47.869Z,102462.25
2022-12-03T20:37:46.785Z,102469.19
2022-12-03T20:42:50.152Z,102470.94
2022-12-03T20:47:48.996Z,102471.84
2022-12-03T20:53:09.410Z,102479.78
2022-12-03T20:58:08.219Z,102474.38
2022-12-03T21:03:07.116Z,102479.69
2022-12-03T21:08:06.434Z,102474.47
2022-12-03T21:13:05.374Z,102478.75
2022-12-03T21:18:05.965Z,102478.00
2022-12-03T21:23:04.952Z,102478.94
2022-12-03T21:28:04.369Z,102487.50
2022-12-03T21:33:03.274Z,102476.34
2022-12-03T21:38:03.581Z,102485.69
2022-12-03T21:43:02.450Z,102477.78
2022-12-03T21:48:01.349Z,102481.06
2022-12-03T21:53:00.605Z,102485.41
2022-12-03T21:58:00.916Z,102490.50
2022-12-03T22:02:59.963Z,102483.59
2022-12-03T22:07:59.037Z,102488.63
2022-12-03T22:12:58.010Z,102490.47
2022-12-03T22:17:58.218Z,102480.16
2022-12-03T22:22:56.957Z,102491.63
2022-12-03T22:27:55.789Z,102489.84
2022-12-03T22:32:54.685Z,102476.63
2022-12-03T22:37:54.922Z,102481.03
2022-12-03T22:42:54.165Z,102470.44
2022-12-03T22:47:53.023Z,102473.91
2022-12-03T22:52:51.925Z,102469.53
2022-12-03T22:57:52.147Z,102469.69
2022-12-03T23:02:52.038Z,102467.19
2022-12-03T23:07:52.312Z,102457.50
2022-12-03T23:12:52.559Z,102462.66
2022-12-03T23:17:52.700Z,102457.44
2022-12-03T23:22:51.618Z,102454.97
2022-12-03T23:27:50.458Z,102450.66
2022-12-03T23:32:50.698Z,102452.47
2022-12-03T23:37:49.510Z,102457.84
2022-12-03T23:42:48.295Z,102461.31
2022-12-03T23:47:47.189Z,102459.50
2022-12-03T23:52:47.375Z,102463.97
2022-12-03T23:57:46.180Z,102460.25
